sensor_id;sensor_type;location;lat;lon;timestamp;temperature;humidity
81366;DHT22;77350;51.990;22.766;2024-03-17T00:04:11;8.90;83.90
81366;DHT22;77350;51.990;22.766;2024-03-17T00:19:16;8.90;84.00
81366;DHT22;77350;51.990;22.766;2024-03-17T00:34:21;9.00;83.80
81366;DHT22;77350;51.990;22.766;2024-03-17T00:49:26;9.00;84.30
81366;DHT22;77350;51.990;22.766;2024-03-17T01:04:31;9.10;85.70
81366;DHT22;77350;51.990;22.766;2024-03-17T01:19:37;9.00;87.10
81366;DHT22;77350;51.990;22.766;2024-03-17T01:34:42;9.00;88.20
81366;DHT22;77350;51.990;22.766;2024-03-17T01:49:47;8.60;87.30
81366;DHT22;77350;51.990;22.766;2024-03-17T02:04:53;7.80;86.10
81366;DHT22;77350;51.990;22.766;2024-03-17T02:19:58;7.20;85.70
81366;DHT22;77350;51.990;22.766;2024-03-17T02:35:04;6.60;84.80
81366;DHT22;77350;51.990;22.766;2024-03-17T02:50:09;6.30;84.10
81366;DHT22;77350;51.990;22.766;2024-03-17T03:05:15;6.20;83.10
81366;DHT22;77350;51.990;22.766;2024-03-17T03:20:20;5.90;82.70
81366;DHT22;77350;51.990;22.766;2024-03-17T03:35:28;5.90;82.20
81366;DHT22;77350;51.990;22.766;2024-03-17T03:50:33;5.80;81.60
81366;DHT22;77350;51.990;22.766;2024-03-17T04:05:38;5.50;80.10
81366;DHT22;77350;51.990;22.766;2024-03-17T04:20:43;5.50;80.20
81366;DHT22;77350;51.990;22.766;2024-03-17T04:35:49;5.40;79.50
81366;DHT22;77350;51.990;22.766;2024-03-17T04:50:54;5.10;79.40
81366;DHT22;77350;51.990;22.766;2024-03-17T05:06:03;5.00;78.40
81366;DHT22;77350;51.990;22.766;2024-03-17T05:21:09;4.80;77.80
81366;DHT22;77350;51.990;22.766;2024-03-17T05:36:14;4.70;77.60
81366;DHT22;77350;51.990;22.766;2024-03-17T05:51:19;4.70;77.20
81366;DHT22;77350;51.990;22.766;2024-03-17T06:06:24;5.60;77.10
81366;DHT22;77350;51.990;22.766;2024-03-17T06:21:29;6.70;72.80
81366;DHT22;77350;51.990;22.766;2024-03-17T06:36:34;7.60;68.30
81366;DHT22;77350;51.990;22.766;2024-03-17T06:51:39;8.00;66.20
81366;DHT22;77350;51.990;22.766;2024-03-17T07:06:44;8.50;63.90
81366;DHT22;77350;51.990;22.766;2024-03-17T07:21:49;9.20;59.90
81366;DHT22;77350;51.990;22.766;2024-03-17T07:36:54;9.00;58.00
81366;DHT22;77350;51.990;22.766;2024-03-17T07:51:59;9.20;55.10
81366;DHT22;77350;51.990;22.766;2024-03-17T08:07:04;9.20;56.30
81366;DHT22;77350;51.990;22.766;2024-03-17T08:22:09;9.00;54.20
81366;DHT22;77350;51.990;22.766;2024-03-17T08:37:14;9.00;56.10
81366;DHT22;77350;51.990;22.766;2024-03-17T08:52:19;9.30;53.70
81366;DHT22;77350;51.990;22.766;2024-03-17T09:07:25;8.80;55.30
81366;DHT22;77350;51.990;22.766;2024-03-17T09:22:30;9.60;58.10
81366;DHT22;77350;51.990;22.766;2024-03-17T09:37:35;9.70;53.30
81366;DHT22;77350;51.990;22.766;2024-03-17T09:52:42;8.60;55.30
81366;DHT22;77350;51.990;22.766;2024-03-17T10:07:49;8.20;57.50
81366;DHT22;77350;51.990;22.766;2024-03-17T10:23:02;8.30;58.80
81366;DHT22;77350;51.990;22.766;2024-03-17T10:38:09;8.20;58.20
81366;DHT22;77350;51.990;22.766;2024-03-17T10:53:20;8.00;58.70
81366;DHT22;77350;51.990;22.766;2024-03-17T11:08:31;7.50;59.70
81366;DHT22;77350;51.990;22.766;2024-03-17T11:23:37;7.50;61.30
81366;DHT22;77350;51.990;22.766;2024-03-17T11:38:55;7.10;61.50
81366;DHT22;77350;51.990;22.766;2024-03-17T11:54:02;7.30;62.40
81366;DHT22;77350;51.990;22.766;2024-03-17T12:09:18;7.20;61.90
81366;DHT22;77350;51.990;22.766;2024-03-17T12:24:27;6.80;62.90
81366;DHT22;77350;51.990;22.766;2024-03-17T12:39:33;6.80;61.10
81366;DHT22;77350;51.990;22.766;2024-03-17T12:54:38;7.10;61.20
81366;DHT22;77350;51.990;22.766;2024-03-17T13:09:43;7.40;61.30
81366;DHT22;77350;51.990;22.766;2024-03-17T13:24:49;7.90;62.10
81366;DHT22;77350;51.990;22.766;2024-03-17T13:39:55;7.80;60.80
81366;DHT22;77350;51.990;22.766;2024-03-17T13:55:01;7.20;65.40
81366;DHT22;77350;51.990;22.766;2024-03-17T14:10:06;6.70;66.80
81366;DHT22;77350;51.990;22.766;2024-03-17T14:25:14;6.00;69.60
81366;DHT22;77350;51.990;22.766;2024-03-17T14:40:21;5.50;71.30
81366;DHT22;77350;51.990;22.766;2024-03-17T14:55:27;5.60;72.70
81366;DHT22;77350;51.990;22.766;2024-03-17T15:10:32;5.50;72.90
81366;DHT22;77350;51.990;22.766;2024-03-17T15:25:39;5.60;72.50
81366;DHT22;77350;51.990;22.766;2024-03-17T15:40:44;6.90;72.40
81366;DHT22;77350;51.990;22.766;2024-03-17T15:55:54;5.00;74.60
81366;DHT22;77350;51.990;22.766;2024-03-17T16:11:00;4.40;77.20
81366;DHT22;77350;51.990;22.766;2024-03-17T16:26:06;4.20;77.70
81366;DHT22;77350;51.990;22.766;2024-03-17T16:41:11;4.40;78.50
81366;DHT22;77350;51.990;22.766;2024-03-17T16:56:17;4.10;78.70
81366;DHT22;77350;51.990;22.766;2024-03-17T17:11:23;4.00;78.50
81366;DHT22;77350;51.990;22.766;2024-03-17T17:26:29;3.40;78.90
81366;DHT22;77350;51.990;22.766;2024-03-17T17:41:36;3.50;79.50
81366;DHT22;77350;51.990;22.766;2024-03-17T17:56:42;3.40;79.90
81366;DHT22;77350;51.990;22.766;2024-03-17T18:11:47;3.60;79.80
81366;DHT22;77350;51.990;22.766;2024-03-17T18:26:52;3.20;79.90
81366;DHT22;77350;51.990;22.766;2024-03-17T18:41:57;3.20;80.20
81366;DHT22;77350;51.990;22.766;2024-03-17T18:57:02;2.90;80.00
81366;DHT22;77350;51.990;22.766;2024-03-17T19:12:07;2.70;79.60
81366;DHT22;77350;51.990;22.766;2024-03-17T19:27:13;2.60;79.50
81366;DHT22;77350;51.990;22.766;2024-03-17T19:42:19;2.80;79.30
81366;DHT22;77350;51.990;22.766;2024-03-17T19:57:26;2.50;79.40
81366;DHT22;77350;51.990;22.766;2024-03-17T20:12:32;2.30;79.20
81366;DHT22;77350;51.990;22.766;2024-03-17T20:27:39;2.30;79.00
81366;DHT22;77350;51.990;22.766;2024-03-17T20:42:46;2.30;78.70
81366;DHT22;77350;51.990;22.766;2024-03-17T20:57:52;2.10;78.50
81366;DHT22;77350;51.990;22.766;2024-03-17T21:12:59;1.90;77.60
81366;DHT22;77350;51.990;22.766;2024-03-17T21:28:05;1.80;77.20
81366;DHT22;77350;51.990;22.766;2024-03-17T21:43:10;1.90;77.80
81366;DHT22;77350;51.990;22.766;2024-03-17T21:58:16;1.80;77.90
81366;DHT22;77350;51.990;22.766;2024-03-17T22:13:23;1.90;77.60
81366;DHT22;77350;51.990;22.766;2024-03-17T22:28:28;1.30;76.70
81366;DHT22;77350;51.990;22.766;2024-03-17T22:43:34;1.40;76.70
81366;DHT22;77350;51.990;22.766;2024-03-17T22:58:40;1.30;76.80
81366;DHT22;77350;51.990;22.766;2024-03-17T23:13:49;1.40;76.80
81366;DHT22;77350;51.990;22.766;2024-03-17T23:28:55;1.40;77.10
81366;DHT22;77350;51.990;22.766;2024-03-17T23:44:00;1.30;77.10
81366;DHT22;77350;51.990;22.766;2024-03-17T23:59:05;1.40;77.50
